createdAt,value
2018-12-16T00:02:28.131Z,23.05
2018-12-16T00:04:57.408Z,23.07
2018-12-16T00:07:26.692Z,23.57
2018-12-16T00:09:56.080Z,22.85
2018-12-16T00:12:25.495Z,22.65
2018-12-16T00:14:54.899Z,21.07
2018-12-16T00:17:24.333Z,21.80
2018-12-16T00:19:53.676Z,23.18
2018-12-16T00:22:22.920Z,22.73
2018-12-16T00:24:52.311Z,24.02
2018-12-16T00:27:21.567Z,20.05
2018-12-16T00:29:50.800Z,21.02
2018-12-16T00:32:19.970Z,22.40
2018-12-16T00:34:49.293Z,30.88
2018-12-16T00:37:18.641Z,22.52
2018-12-16T00:39:48.018Z,17.73
2018-12-16T00:42:17.422Z,25.50
2018-12-16T00:44:46.624Z,21.80
2018-12-16T00:47:15.661Z,21.25
2018-12-16T00:49:44.822Z,21.40
2018-12-16T00:52:14.209Z,19.30
2018-12-16T00:54:43.497Z,21.33
2018-12-16T00:57:12.824Z,20.88
2018-12-16T00:59:42.520Z,20.12
2018-12-16T01:02:16.710Z,18.98
2018-12-16T01:04:45.938Z,18.85
2018-12-16T01:07:15.257Z,21.40
2018-12-16T01:09:44.646Z,21.17
2018-12-16T01:12:14.048Z,23.55
2018-12-16T01:14:43.452Z,20.17
2018-12-16T01:17:12.673Z,20.75
2018-12-16T01:19:41.940Z,17.05
2018-12-16T01:22:11.184Z,18.60
2018-12-16T01:24:40.452Z,19.37
2018-12-16T01:27:09.754Z,16.50
2018-12-16T01:29:39.048Z,19.32
2018-12-16T01:32:08.208Z,18.95
2018-12-16T01:34:37.523Z,16.35
2018-12-16T01:37:06.756Z,17.62
2018-12-16T01:39:36.241Z,20.65
2018-12-16T01:42:05.680Z,19.82
2018-12-16T01:44:35.068Z,16.48
2018-12-16T01:47:04.511Z,15.32
2018-12-16T01:49:33.573Z,19.55
2018-12-16T01:52:02.879Z,18.10
2018-12-16T01:54:32.175Z,16.62
2018-12-16T01:57:01.566Z,17.75
2018-12-16T01:59:30.873Z,15.98
2018-12-16T02:02:00.268Z,19.35
2018-12-16T02:04:29.566Z,17.00
2018-12-16T02:06:58.896Z,14.73
2018-12-16T02:09:28.276Z,15.53
2018-12-16T02:11:57.385Z,15.65
2018-12-16T02:14:26.887Z,15.13
2018-12-16T02:16:56.245Z,17.35
2018-12-16T02:19:25.553Z,14.33
2018-12-16T02:21:54.695Z,15.60
2018-12-16T02:24:24.179Z,17.62
2018-12-16T02:26:53.389Z,15.90
2018-12-16T02:29:22.684Z,15.43
2018-12-16T02:31:52.188Z,13.98
2018-12-16T02:34:21.460Z,14.07
2018-12-16T02:36:50.807Z,13.70
2018-12-16T02:39:20.137Z,14.47
2018-12-16T02:41:49.428Z,13.45
2018-12-16T02:44:18.707Z,14.50
2018-12-16T02:46:48.232Z,13.70
2018-12-16T02:49:17.604Z,14.18
2018-12-16T02:51:46.910Z,14.00
2018-12-16T02:54:16.132Z,13.93
2018-12-16T02:56:45.413Z,14.63
2018-12-16T02:59:14.734Z,12.95
2018-12-16T03:01:48.375Z,12.03
2018-12-16T03:04:17.724Z,14.30
2018-12-16T03:06:47.121Z,15.72
2018-12-16T03:09:16.461Z,13.40
2018-12-16T03:11:45.831Z,13.60
2018-12-16T03:14:15.335Z,11.43
2018-12-16T03:16:44.741Z,12.03
2018-12-16T03:19:14.149Z,12.60
2018-12-16T03:21:43.463Z,11.85
2018-12-16T03:24:12.638Z,13.13
2018-12-16T03:26:41.840Z,12.68
2018-12-16T03:29:11.135Z,13.70
2018-12-16T03:31:40.344Z,12.33
2018-12-16T03:34:09.642Z,9.90
2018-12-16T03:36:38.951Z,12.90
2018-12-16T03:39:08.261Z,12.45
2018-12-16T03:41:37.587Z,11.85
2018-12-16T03:44:07.047Z,11.50
2018-12-16T03:46:36.252Z,10.80
2018-12-16T03:49:05.671Z,11.15
2018-12-16T03:51:35.060Z,11.28
2018-12-16T03:54:04.366Z,11.18
2018-12-16T03:56:33.547Z,10.78
2018-12-16T03:59:19.051Z,10.55
2018-12-16T04:01:53.099Z,11.22
2018-12-16T04:04:22.351Z,24.15
2018-12-16T04:06:51.673Z,10.53
2018-12-16T04:09:20.973Z,13.13
2018-12-16T04:11:50.394Z,11.03
2018-12-16T04:14:19.862Z,10.98
2018-12-16T04:16:49.273Z,10.60
2018-12-16T04:19:18.745Z,8.55
2018-12-16T04:21:47.978Z,10.30
2018-12-16T04:24:17.217Z,10.65
2018-12-16T04:26:46.679Z,10.08
2018-12-16T04:29:16.096Z,10.60
2018-12-16T04:31:45.475Z,9.75
2018-12-16T04:34:14.799Z,10.60
2018-12-16T04:36:44.201Z,12.35
2018-12-16T04:39:13.504Z,9.20
2018-12-16T04:41:42.809Z,8.83
2018-12-16T04:44:12.084Z,10.75
2018-12-16T04:46:41.439Z,8.95
2018-12-16T04:49:10.895Z,10.05
2018-12-16T04:51:40.400Z,9.80
2018-12-16T04:54:09.715Z,10.13
2018-12-16T04:56:39.103Z,8.55
2018-12-16T04:59:08.327Z,8.53
2018-12-16T05:01:37.616Z,8.68
2018-12-16T05:04:06.905Z,9.55
2018-12-16T05:06:36.115Z,8.33
2018-12-16T05:09:07.405Z,8.05
2018-12-16T05:11:36.854Z,9.08
2018-12-16T05:14:06.376Z,9.38
2018-12-16T05:16:35.672Z,7.60
2018-12-16T05:19:05.080Z,8.50
2018-12-16T05:21:34.376Z,9.48
2018-12-16T05:24:03.691Z,9.03
2018-12-16T05:26:33.067Z,10.78
2018-12-16T05:29:02.487Z,7.67
2018-12-16T05:31:31.901Z,8.30
2018-12-16T05:34:01.323Z,7.70
2018-12-16T05:36:30.602Z,10.05
2018-12-16T05:38:59.999Z,7.83
2018-12-16T05:41:29.383Z,8.55
2018-12-16T05:43:58.691Z,7.85
2018-12-16T05:46:27.899Z,8.00
2018-12-16T05:48:57.200Z,8.08
2018-12-16T05:51:26.627Z,9.63
2018-12-16T05:53:56.032Z,8.80
2018-12-16T05:56:25.430Z,8.43
2018-12-16T05:58:55.020Z,7.47
2018-12-16T06:01:24.294Z,8.88
2018-12-16T06:03:53.625Z,7.35
2018-12-16T06:06:22.933Z,7.90
2018-12-16T06:08:52.240Z,7.40
2018-12-16T06:11:21.540Z,7.05
2018-12-16T06:13:50.834Z,7.33
2018-12-16T06:16:20.135Z,6.90
2018-12-16T06:18:49.660Z,8.18
2018-12-16T06:21:18.943Z,8.25
2018-12-16T06:23:55.228Z,6.30
2018-12-16T06:26:19.714Z,6.42
2018-12-16T06:28:49.127Z,15.50
2018-12-16T06:31:18.407Z,7.90
2018-12-16T06:33:47.733Z,7.10
2018-12-16T06:36:17.200Z,7.55
2018-12-16T06:38:46.609Z,7.42
2018-12-16T06:41:16.016Z,6.20
2018-12-16T06:43:45.303Z,7.45
2018-12-16T06:46:14.524Z,7.78
2018-12-16T06:48:43.815Z,5.53
2018-12-16T06:51:13.016Z,6.55
2018-12-16T06:53:42.352Z,7.45
2018-12-16T06:56:11.720Z,6.97
2018-12-16T06:58:41.194Z,7.53
2018-12-16T07:01:10.524Z,7.22
2018-12-16T07:03:39.748Z,7.92
2018-12-16T07:06:08.938Z,7.50
2018-12-16T07:08:38.215Z,8.30
2018-12-16T07:11:07.429Z,8.75
2018-12-16T07:13:36.727Z,11.10
2018-12-16T07:16:06.036Z,14.47
2018-12-16T07:18:35.432Z,21.00
2018-12-16T07:21:04.923Z,16.95
2018-12-16T07:23:34.335Z,31.75
2018-12-16T07:26:03.853Z,48.02
2018-12-16T07:28:33.303Z,48.65
2018-12-16T07:31:02.651Z,29.92
2018-12-16T07:33:31.845Z,38.90
2018-12-16T07:36:01.168Z,49.70
2018-12-16T07:38:30.457Z,49.35
2018-12-16T07:40:59.862Z,46.08
2018-12-16T07:43:29.356Z,38.13
2018-12-16T07:45:58.592Z,54.60
2018-12-16T07:48:28.388Z,54.93
2018-12-16T07:50:57.696Z,58.15
2018-12-16T07:53:27.184Z,52.10
2018-12-16T07:55:56.689Z,67.30
2018-12-16T07:58:26.101Z,64.53
2018-12-16T08:00:55.428Z,73.25
2018-12-16T08:03:24.692Z,76.42
2018-12-16T08:05:54.019Z,76.65
2018-12-16T08:08:23.383Z,79.92
2018-12-16T08:10:52.693Z,85.57
2018-12-16T08:13:22.268Z,89.85
2018-12-16T08:15:51.612Z,90.17
2018-12-16T08:18:21.003Z,88.17
2018-12-16T08:20:50.216Z,94.50
2018-12-16T08:23:19.630Z,88.87
2018-12-16T08:25:48.919Z,94.58
2018-12-16T08:28:18.324Z,88.25
2018-12-16T08:30:47.640Z,89.67
2018-12-16T08:33:16.851Z,89.32
2018-12-16T08:35:46.219Z,84.13
2018-12-16T08:38:15.660Z,87.25
2018-12-16T08:40:44.934Z,84.32
2018-12-16T08:43:14.327Z,83.95
2018-12-16T08:45:43.548Z,79.15
2018-12-16T08:48:12.940Z,83.40
2018-12-16T08:50:42.248Z,73.78
2018-12-16T08:53:11.571Z,72.30
2018-12-16T08:55:41.057Z,73.37
2018-12-16T08:58:10.351Z,76.97
2018-12-16T09:00:39.750Z,73.15
2018-12-16T09:03:11.267Z,73.02
2018-12-16T09:05:40.528Z,70.00
2018-12-16T09:08:09.799Z,68.47
2018-12-16T09:10:39.172Z,71.57
2018-12-16T09:13:08.677Z,63.05
2018-12-16T09:15:38.011Z,65.25
2018-12-16T09:18:07.228Z,60.17
2018-12-16T09:20:36.629Z,65.95
2018-12-16T09:23:06.038Z,55.78
2018-12-16T09:25:35.430Z,62.00
2018-12-16T09:28:04.760Z,61.45
2018-12-16T09:30:34.047Z,58.30
2018-12-16T09:33:03.344Z,58.63
2018-12-16T09:35:32.629Z,56.15
2018-12-16T09:38:02.132Z,59.50
2018-12-16T09:40:31.534Z,59.33
2018-12-16T09:43:00.829Z,55.48
2018-12-16T09:45:30.251Z,52.03
2018-12-16T09:47:59.833Z,49.13
2018-12-16T09:50:29.166Z,54.30
2018-12-16T09:52:58.602Z,58.10
2018-12-16T09:55:27.862Z,49.42
2018-12-16T09:57:57.172Z,48.87
2018-12-16T10:00:26.656Z,43.60
2018-12-16T10:02:56.063Z,52.80
2018-12-16T10:05:25.576Z,49.83
2018-12-16T10:07:54.765Z,47.60
2018-12-16T10:10:24.075Z,39.75
2018-12-16T10:12:53.484Z,45.35
2018-12-16T10:15:22.880Z,47.05
2018-12-16T10:17:51.984Z,49.42
2018-12-16T10:20:21.303Z,38.98
2018-12-16T10:22:50.484Z,46.05
2018-12-16T10:25:19.788Z,50.70
2018-12-16T10:27:49.271Z,47.55
2018-12-16T10:30:18.693Z,52.35
2018-12-16T10:32:47.974Z,46.28
2018-12-16T10:35:17.197Z,49.10
2018-12-16T10:37:46.599Z,51.35
2018-12-16T10:40:15.805Z,52.38
2018-12-16T10:42:45.203Z,52.25
2018-12-16T10:45:14.596Z,73.33
2018-12-16T10:47:43.810Z,67.50
2018-12-16T10:50:13.203Z,67.12
2018-12-16T10:52:42.427Z,60.23
2018-12-16T10:55:11.674Z,55.92
2018-12-16T10:57:40.915Z,42.70
2018-12-16T11:00:16.478Z,27.42
2018-12-16T11:02:45.848Z,25.50
2018-12-16T11:05:15.306Z,22.85
2018-12-16T11:07:44.672Z,17.10
2018-12-16T11:10:14.071Z,17.92
2018-12-16T11:12:43.553Z,11.68
2018-12-16T11:15:12.972Z,12.00
2018-12-16T11:17:42.286Z,14.07
2018-12-16T11:20:11.673Z,10.63
2018-12-16T11:22:41.104Z,11.30
2018-12-16T11:25:12.997Z,13.55
2018-12-16T11:27:42.195Z,15.30
2018-12-16T11:30:12.074Z,15.63
2018-12-16T11:32:41.275Z,14.73
2018-12-16T11:35:10.579Z,16.40
2018-12-16T11:37:39.888Z,14.20
2018-12-16T11:40:09.356Z,14.50
2018-12-16T11:42:38.681Z,19.10
2018-12-16T11:45:08.272Z,16.80
2018-12-16T11:47:37.491Z,29.02
2018-12-16T11:50:06.898Z,17.65
2018-12-16T11:52:36.297Z,23.00
2018-12-16T11:55:12.568Z,19.62
2018-12-16T11:57:36.788Z,20.35
2018-12-16T12:00:06.742Z,14.80
2018-12-16T12:02:35.945Z,19.50
2018-12-16T12:05:05.049Z,15.55
2018-12-16T12:07:34.361Z,21.82
2018-12-16T12:10:03.731Z,17.25
2018-12-16T12:12:33.155Z,12.88
2018-12-16T12:15:02.559Z,18.62
2018-12-16T12:17:31.872Z,14.10
2018-12-16T12:20:01.155Z,15.68
2018-12-16T12:22:30.469Z,15.63
2018-12-16T12:24:59.770Z,14.80
2018-12-16T12:27:28.963Z,18.55
2018-12-16T12:29:58.255Z,15.53
2018-12-16T12:32:27.461Z,15.98
2018-12-16T12:34:56.775Z,16.32
2018-12-16T12:37:25.955Z,16.73
2018-12-16T12:39:55.169Z,20.65
2018-12-16T12:42:24.372Z,23.52
2018-12-16T12:44:53.860Z,25.62
2018-12-16T12:47:23.155Z,21.27
2018-12-16T12:49:52.431Z,25.25
2018-12-16T12:52:21.776Z,16.25
2018-12-16T12:54:51.163Z,24.18
2018-12-16T12:57:20.364Z,17.73
2018-12-16T12:59:49.683Z,18.98
2018-12-16T13:02:18.976Z,22.15
2018-12-16T13:04:48.164Z,24.05
2018-12-16T13:07:17.267Z,18.27
2018-12-16T13:09:46.453Z,17.50
2018-12-16T13:12:15.808Z,21.37
2018-12-16T13:14:45.160Z,16.80
2018-12-16T13:17:14.576Z,19.00
2018-12-16T13:19:43.983Z,22.40
2018-12-16T13:22:13.271Z,19.85
2018-12-16T13:25:54.273Z,17.20
2018-12-16T13:28:23.555Z,16.48
2018-12-16T13:30:52.751Z,18.37
2018-12-16T13:33:22.160Z,51.63
2018-12-16T13:35:51.566Z,26.93
2018-12-16T13:38:20.886Z,34.83
2018-12-16T13:40:50.272Z,39.35
2018-12-16T13:43:19.728Z,39.67
2018-12-16T13:45:49.084Z,37.75
2018-12-16T13:48:18.479Z,45.98
2018-12-16T13:50:47.809Z,48.50
2018-12-16T13:53:17.395Z,46.73
2018-12-16T13:55:46.972Z,54.23
2018-12-16T13:58:16.212Z,49.63
2018-12-16T14:00:45.603Z,53.20
2018-12-16T14:03:14.924Z,52.83
2018-12-16T14:05:46.720Z,35.75
2018-12-16T14:08:15.748Z,37.67
2018-12-16T14:10:45.159Z,41.35
2018-12-16T14:13:14.462Z,43.38
2018-12-16T14:15:43.793Z,46.00
2018-12-16T14:18:13.071Z,37.67
2018-12-16T14:20:42.472Z,42.90
2018-12-16T14:23:11.703Z,35.28
2018-12-16T14:25:47.803Z,35.25
2018-12-16T14:28:12.316Z,39.58
2018-12-16T14:30:41.517Z,37.00
2018-12-16T14:33:10.840Z,36.83
2018-12-16T14:35:40.115Z,35.90
2018-12-16T14:38:09.693Z,42.25
2018-12-16T14:40:38.927Z,49.73
2018-12-16T14:43:08.237Z,63.38
2018-12-16T14:45:37.537Z,68.42
2018-12-16T14:48:06.951Z,59.75
2018-12-16T14:50:36.427Z,67.15
2018-12-16T14:53:05.649Z,63.80
2018-12-16T14:55:35.052Z,58.55
2018-12-16T14:58:04.465Z,54.55
2018-12-16T15:00:33.853Z,52.05
2018-12-16T15:03:03.141Z,51.45
2018-12-16T15:05:33.363Z,50.45
2018-12-16T15:08:02.787Z,51.08
2018-12-16T15:10:32.195Z,54.23
2018-12-16T15:13:01.604Z,54.40
2018-12-16T15:15:30.903Z,58.23
2018-12-16T15:18:00.200Z,59.08
2018-12-16T15:20:29.391Z,64.40
2018-12-16T15:22:58.683Z,78.95
2018-12-16T15:25:28.250Z,77.50
2018-12-16T15:27:57.704Z,74.87
2018-12-16T15:30:27.121Z,74.50
2018-12-16T15:32:56.510Z,76.17
2018-12-16T15:35:25.828Z,72.22
2018-12-16T15:37:55.128Z,81.85
2018-12-16T15:40:24.617Z,72.27
2018-12-16T15:42:54.015Z,80.17
2018-12-16T15:45:23.402Z,100.70
2018-12-16T15:47:52.723Z,79.85
2018-12-16T15:50:22.138Z,74.82
2018-12-16T15:52:51.440Z,75.42
2018-12-16T15:55:20.739Z,74.60
2018-12-16T15:57:50.050Z,74.35
2018-12-16T16:00:19.247Z,62.78
2018-12-16T16:02:48.549Z,68.67
2018-12-16T16:05:17.827Z,76.05
2018-12-16T16:07:46.966Z,65.08
2018-12-16T16:10:16.431Z,65.65
2018-12-16T16:12:45.831Z,68.10
2018-12-16T16:15:15.136Z,66.97
2018-12-16T16:17:44.460Z,62.33
2018-12-16T16:20:13.853Z,70.65
2018-12-16T16:22:43.256Z,71.02
2018-12-16T16:25:12.466Z,78.28
2018-12-16T16:27:41.755Z,73.40
2018-12-16T16:30:11.048Z,81.35
2018-12-16T16:32:40.281Z,88.33
2018-12-16T16:35:09.649Z,89.55
2018-12-16T16:37:38.840Z,92.82
2018-12-16T16:40:08.352Z,125.53
2018-12-16T16:42:37.759Z,116.03
2018-12-16T16:45:07.638Z,120.30
2018-12-16T16:47:36.647Z,122.15
2018-12-16T16:50:06.307Z,126.65
2018-12-16T16:52:35.679Z,130.82
2018-12-16T16:55:04.994Z,131.32
2018-12-16T16:57:34.396Z,151.68
2018-12-16T17:00:03.802Z,153.87
2018-12-16T17:02:33.140Z,161.22
2018-12-16T17:05:02.510Z,167.18
2018-12-16T17:07:32.068Z,147.93
2018-12-16T17:10:01.459Z,142.05
2018-12-16T17:12:30.808Z,149.87
2018-12-16T17:15:00.135Z,140.28
2018-12-16T17:17:29.418Z,141.30
2018-12-16T17:19:58.680Z,138.92
2018-12-16T17:22:27.948Z,141.35
2018-12-16T17:24:57.427Z,133.70
2018-12-16T17:27:26.916Z,134.80
2018-12-16T17:29:56.240Z,125.65
2018-12-16T17:32:25.419Z,121.45
2018-12-16T17:34:54.656Z,118.53
2018-12-16T17:37:23.918Z,115.35
2018-12-16T17:39:53.150Z,115.77
2018-12-16T17:42:22.545Z,114.97
2018-12-16T17:44:51.846Z,108.92
2018-12-16T17:47:21.249Z,108.37
2018-12-16T17:49:50.656Z,99.32
2018-12-16T17:52:19.838Z,105.95
2018-12-16T17:54:49.052Z,105.85
2018-12-16T17:57:18.445Z,96.57
2018-12-16T17:59:47.735Z,99.67
2018-12-16T18:02:16.940Z,97.42
2018-12-16T18:04:46.243Z,91.10
2018-12-16T18:07:15.643Z,94.47
2018-12-16T18:09:44.854Z,96.78
2018-12-16T18:12:14.268Z,94.13
2018-12-16T18:14:43.747Z,90.15
2018-12-16T18:17:13.075Z,85.97
2018-12-16T18:19:42.464Z,87.42
2018-12-16T18:22:14.085Z,83.97
2018-12-16T18:24:43.207Z,88.55
2018-12-16T18:27:12.370Z,81.02
2018-12-16T18:29:41.727Z,79.42
2018-12-16T18:32:11.116Z,76.62
2018-12-16T18:34:40.311Z,77.45
2018-12-16T18:37:09.724Z,73.40
2018-12-16T18:39:39.016Z,69.97
2018-12-16T18:42:08.689Z,66.20
2018-12-16T18:44:38.151Z,72.17
2018-12-16T18:47:07.631Z,69.03
2018-12-16T18:49:36.854Z,67.17
2018-12-16T18:52:06.250Z,67.27
2018-12-16T18:54:35.645Z,64.55
2018-12-16T18:57:07.416Z,65.62
2018-12-16T18:59:36.500Z,59.20
2018-12-16T19:02:06.228Z,64.40
2018-12-16T19:04:35.729Z,60.10
2018-12-16T19:07:07.121Z,54.98
2018-12-16T19:09:36.375Z,55.05
2018-12-16T19:12:05.665Z,54.13
2018-12-16T19:14:35.140Z,59.27
2018-12-16T19:17:04.300Z,58.83
2018-12-16T19:19:33.585Z,54.03
2018-12-16T19:22:02.879Z,55.78
2018-12-16T19:24:32.197Z,54.25
2018-12-16T19:27:01.368Z,56.92
2018-12-16T19:29:30.546Z,53.10
2018-12-16T19:31:59.658Z,51.98
2018-12-16T19:34:28.870Z,54.18
2018-12-16T19:36:58.156Z,53.60
2018-12-16T19:39:28.308Z,54.35
2018-12-16T19:41:57.584Z,51.63
2018-12-16T19:44:26.811Z,47.03
2018-12-16T19:46:56.353Z,50.67
2018-12-16T19:49:25.652Z,49.45
2018-12-16T19:51:55.054Z,49.03
2018-12-16T19:54:24.877Z,49.42
2018-12-16T19:56:54.258Z,48.58
2018-12-16T19:59:23.668Z,46.23
2018-12-16T20:01:52.833Z,44.38
2018-12-16T20:04:24.651Z,50.73
2018-12-16T20:06:54.003Z,50.45
2018-12-16T20:09:23.321Z,46.63
2018-12-16T20:11:52.613Z,40.83
2018-12-16T20:14:21.840Z,44.70
2018-12-16T20:16:51.295Z,41.20
2018-12-16T20:19:20.713Z,40.80
2018-12-16T20:21:50.117Z,40.08
2018-12-16T20:24:19.425Z,43.60
2018-12-16T20:26:48.764Z,35.83
2018-12-16T20:29:18.067Z,36.58
2018-12-16T20:31:47.403Z,37.38
2018-12-16T20:34:16.816Z,34.45
2018-12-16T20:36:46.219Z,35.50
2018-12-16T20:39:15.618Z,35.90
2018-12-16T20:41:44.920Z,33.38
2018-12-16T20:44:14.244Z,36.40
2018-12-16T20:46:43.555Z,39.85
2018-12-16T20:49:13.048Z,34.88
2018-12-16T20:51:42.536Z,34.67
2018-12-16T20:54:11.939Z,34.55
2018-12-16T20:56:41.368Z,34.78
2018-12-16T20:59:10.670Z,32.30
2018-12-16T21:01:39.984Z,31.10
2018-12-16T21:04:09.449Z,32.67
2018-12-16T21:06:39.249Z,32.75
2018-12-16T21:09:08.892Z,33.05
2018-12-16T21:11:43.144Z,30.12
2018-12-16T21:14:17.471Z,29.82
2018-12-16T21:16:51.620Z,27.58
2018-12-16T21:19:21.188Z,29.00
2018-12-16T21:21:50.659Z,29.02
2018-12-16T21:24:20.088Z,28.70
2018-12-16T21:26:49.603Z,29.40
2018-12-16T21:29:18.964Z,26.55
2018-12-16T21:31:48.175Z,26.07
2018-12-16T21:34:17.352Z,25.68
2018-12-16T21:36:46.800Z,26.57
2018-12-16T21:39:16.248Z,25.97
2018-12-16T21:41:45.571Z,26.52
2018-12-16T21:44:14.975Z,27.77
2018-12-16T21:46:44.374Z,28.55
2018-12-16T21:49:13.687Z,24.23
2018-12-16T21:51:43.098Z,25.40
2018-12-16T21:54:12.572Z,26.15
2018-12-16T21:56:41.920Z,26.68
2018-12-16T21:59:11.275Z,25.15
2018-12-16T22:01:40.679Z,24.50
2018-12-16T22:04:09.979Z,23.20
2018-12-16T22:06:39.312Z,24.15
2018-12-16T22:09:09.299Z,22.85
2018-12-16T22:11:38.621Z,22.45
2018-12-16T22:14:08.003Z,23.98
2018-12-16T22:16:37.414Z,22.70
2018-12-16T22:19:06.821Z,22.13
2018-12-16T22:21:36.135Z,21.95
2018-12-16T22:24:05.435Z,22.48
2018-12-16T22:26:34.921Z,21.75
2018-12-16T22:29:04.219Z,25.50
2018-12-16T22:31:33.543Z,21.65
2018-12-16T22:34:02.952Z,23.02
2018-12-16T22:36:32.283Z,19.12
2018-12-16T22:39:01.568Z,21.20
2018-12-16T22:41:30.859Z,19.70
2018-12-16T22:44:00.279Z,21.00
2018-12-16T22:46:29.788Z,21.05
2018-12-16T22:48:59.140Z,24.10
2018-12-16T22:51:28.391Z,20.95
2018-12-16T22:53:57.761Z,19.37
2018-12-16T22:56:26.965Z,19.35
2018-12-16T22:58:56.280Z,21.20
2018-12-16T23:01:25.651Z,19.62
2018-12-16T23:03:55.898Z,17.82
2018-12-16T23:06:25.485Z,18.87
2018-12-16T23:08:54.988Z,19.00
2018-12-16T23:11:24.290Z,18.10
2018-12-16T23:13:53.711Z,16.37
2018-12-16T23:16:23.116Z,17.27
2018-12-16T23:18:52.407Z,16.48
2018-12-16T23:21:21.909Z,16.82
2018-12-16T23:23:51.415Z,20.43
2018-12-16T23:26:20.819Z,15.85
2018-12-16T23:28:50.271Z,17.50
2018-12-16T23:31:19.868Z,16.37
2018-12-16T23:33:49.247Z,15.95
2018-12-16T23:36:19.736Z,16.75
2018-12-16T23:38:49.074Z,16.67
2018-12-16T23:41:18.507Z,16.02
2018-12-16T23:43:47.803Z,16.10
2018-12-16T23:46:17.143Z,16.55
2018-12-16T23:48:46.596Z,15.80
2018-12-16T23:51:16.032Z,17.77
2018-12-16T23:53:45.284Z,18.02
2018-12-16T23:56:14.491Z,13.78
2018-12-16T23:58:43.788Z,16.02
